UAL1454 KIAH-MYNN
Flight info
| Callsign | UAL1454 |
|---|---|
| Flight time | 2h 16m |
| Altitude | 37000 |
| Route | GUMBY3 LLA DCT LEV Y290 SAXXN DCT ELQUE DCT RAJAY |
| Aircraft | B739/M-SDE2E3FGHIRWXY/LB1 |
Departure
| Time | 2026-05-01 13:11 |
|---|---|
| Airport | George Bush Intercontinental Airport (KIAH) |
Arrival
| Time | 2026-05-01 15:28 |
|---|---|
| Airport | Lynden Pindling International Airport (MYNN) |
| Time | Latitude | Longitude | Altitude | Speed | Heading |
|---|---|---|---|---|---|
| 2026-05-01 12:42 | 29.98438 | -95.33293 | 106 ft | 0 kts | 102° |
| 2026-05-01 12:55 | 29.98438 | -95.33294 | 106 ft | 2 kts | 102° |
| 2026-05-01 12:55 | 29.98440 | -95.33321 | 106 ft | 4 kts | 64° |
| 2026-05-01 12:56 | 29.98422 | -95.33341 | 106 ft | 4 kts | 23° |
| 2026-05-01 12:56 | 29.98398 | -95.33353 | 106 ft | 4 kts | 41° |
| 2026-05-01 12:56 | 29.98392 | -95.33371 | 106 ft | 4 kts | 108° |
| 2026-05-01 12:56 | 29.98405 | -95.33393 | 106 ft | 4 kts | 158° |
| 2026-05-01 12:57 | 29.98431 | -95.33399 | 105 ft | 4 kts | 181° |
| 2026-05-01 12:57 | 29.98426 | -95.33398 | 106 ft | 4 kts | 180° |
| 2026-05-01 12:57 | 29.98399 | -95.33397 | 106 ft | 4 kts | 178° |
| 2026-05-01 12:58 | 29.98376 | -95.33396 | 105 ft | 1 kts | 178° |
| 2026-05-01 13:07 | 29.98381 | -95.35146 | 106 ft | 10 kts | 268° |
| 2026-05-01 13:07 | 29.98411 | -95.35218 | 106 ft | 10 kts | 318° |
| 2026-05-01 13:07 | 29.98469 | -95.35260 | 106 ft | 10 kts | 334° |
| 2026-05-01 13:08 | 29.98541 | -95.35301 | 106 ft | 15 kts | 331° |
| 2026-05-01 13:08 | 29.98644 | -95.35365 | 104 ft | 17 kts | 332° |
| 2026-05-01 13:08 | 29.98747 | -95.35425 | 104 ft | 16 kts | 333° |
| 2026-05-01 13:08 | 29.98864 | -95.35481 | 105 ft | 19 kts | 352° |
| 2026-05-01 13:09 | 29.98995 | -95.35484 | 106 ft | 19 kts | 0° |
| 2026-05-01 13:09 | 29.99133 | -95.35484 | 104 ft | 20 kts | 0° |
| 2026-05-01 13:09 | 29.99244 | -95.35484 | 106 ft | 0 kts | 0° |
| 2026-05-01 13:09 | 29.99269 | -95.35483 | 106 ft | 10 kts | 0° |
| 2026-05-01 13:10 | 29.99332 | -95.35445 | 106 ft | 11 kts | 63° |
| 2026-05-01 13:10 | 29.99340 | -95.35394 | 106 ft | 6 kts | 88° |
| 2026-05-01 13:10 | 29.99341 | -95.35086 | 108 ft | 72 kts | 89° |
| 2026-05-01 13:10 | 29.99347 | -95.34258 | 103 ft | 131 kts | 90° |
| 2026-05-01 13:11 | 29.99410 | -95.33033 | 167 ft | 170 kts | 86° |
| 2026-05-01 13:11 | 29.99447 | -95.31638 | 599 ft | 178 kts | 87° |
| 2026-05-01 13:11 | 29.99376 | -95.30209 | 1273 ft | 177 kts | 102° |
| 2026-05-01 13:11 | 29.98988 | -95.28872 | 1868 ft | 181 kts | 108° |
| 2026-05-01 13:12 | 29.98516 | -95.27426 | 2144 ft | 205 kts | 107° |
| 2026-05-01 13:12 | 29.97996 | -95.25809 | 2383 ft | 225 kts | 107° |
| 2026-05-01 13:12 | 29.97451 | -95.24084 | 2869 ft | 235 kts | 107° |
| 2026-05-01 13:12 | 29.96880 | -95.22227 | 3302 ft | 250 kts | 106° |
| 2026-05-01 13:13 | 29.96306 | -95.20315 | 3864 ft | 253 kts | 107° |
| 2026-05-01 13:13 | 29.95739 | -95.18387 | 4021 ft | 256 kts | 107° |
| 2026-05-01 13:13 | 29.95171 | -95.16440 | 4001 ft | 256 kts | 107° |
| 2026-05-01 13:13 | 29.94796 | -95.15149 | 4022 ft | 256 kts | 107° |
| 2026-05-01 13:14 | 29.94235 | -95.13206 | 4030 ft | 255 kts | 107° |
| 2026-05-01 13:14 | 29.93845 | -95.11232 | 4029 ft | 252 kts | 91° |
| 2026-05-01 13:14 | 29.93912 | -95.09203 | 4362 ft | 254 kts | 86° |
| 2026-05-01 13:14 | 29.93789 | -95.07160 | 4993 ft | 261 kts | 108° |
| 2026-05-01 13:15 | 29.93170 | -95.05212 | 5890 ft | 259 kts | 108° |
| 2026-05-01 13:15 | 29.92615 | -95.03217 | 6513 ft | 263 kts | 109° |
| 2026-05-01 13:15 | 29.92027 | -95.01194 | 7225 ft | 267 kts | 109° |
| 2026-05-01 13:15 | 29.91427 | -94.99157 | 7921 ft | 271 kts | 110° |
| 2026-05-01 13:16 | 29.90812 | -94.97077 | 8542 ft | 275 kts | 110° |
| 2026-05-01 13:16 | 29.90184 | -94.94967 | 9212 ft | 281 kts | 111° |
| 2026-05-01 13:16 | 29.89561 | -94.92830 | 9836 ft | 285 kts | 110° |
| 2026-05-01 13:17 | 29.87469 | -94.85775 | 10728 ft | 335 kts | 112° |
| 2026-05-01 13:17 | 29.86704 | -94.83207 | 11235 ft | 343 kts | 112° |
| 2026-05-01 13:18 | 29.85129 | -94.77910 | 12330 ft | 356 kts | 112° |
| 2026-05-01 13:18 | 29.84330 | -94.75222 | 12896 ft | 362 kts | 113° |
| 2026-05-01 13:18 | 29.83508 | -94.72460 | 13480 ft | 367 kts | 113° |
| 2026-05-01 13:18 | 29.82674 | -94.69658 | 14052 ft | 373 kts | 113° |
| 2026-05-01 13:19 | 29.81827 | -94.66810 | 14608 ft | 378 kts | 113° |
| 2026-05-01 13:19 | 29.80959 | -94.63928 | 15155 ft | 383 kts | 113° |
| 2026-05-01 13:19 | 29.79224 | -94.58029 | 16366 ft | 393 kts | 114° |
| 2026-05-01 13:20 | 29.78326 | -94.55020 | 16816 ft | 402 kts | 113° |
| 2026-05-01 13:20 | 29.77423 | -94.51950 | 17463 ft | 404 kts | 114° |
| 2026-05-01 13:20 | 29.76490 | -94.48886 | 17991 ft | 409 kts | 114° |
| 2026-05-01 13:21 | 29.74584 | -94.42593 | 18945 ft | 422 kts | 114° |
| 2026-05-01 13:21 | 29.73622 | -94.39387 | 19468 ft | 426 kts | 114° |
| 2026-05-01 13:21 | 29.72654 | -94.36156 | 19966 ft | 430 kts | 114° |
| 2026-05-01 13:21 | 29.71817 | -94.32805 | 20341 ft | 442 kts | 104° |
| 2026-05-01 13:22 | 29.71373 | -94.29288 | 20857 ft | 447 kts | 100° |
| 2026-05-01 13:22 | 29.71021 | -94.25718 | 21362 ft | 450 kts | 99° |
| 2026-05-01 13:22 | 29.70680 | -94.22120 | 21750 ft | 456 kts | 99° |
| 2026-05-01 13:22 | 29.70311 | -94.18474 | 22178 ft | 460 kts | 100° |
| 2026-05-01 13:23 | 29.69923 | -94.14870 | 22634 ft | 463 kts | 100° |
| 2026-05-01 13:23 | 29.69510 | -94.11183 | 23071 ft | 466 kts | 100° |
| 2026-05-01 13:23 | 29.69088 | -94.07471 | 23459 ft | 470 kts | 100° |
| 2026-05-01 13:23 | 29.68675 | -94.03721 | 23821 ft | 475 kts | 98° |
| 2026-05-01 13:24 | 29.68484 | -93.99906 | 24204 ft | 480 kts | 93° |
| 2026-05-01 13:24 | 29.68440 | -93.96055 | 24614 ft | 483 kts | 91° |
| 2026-05-01 13:24 | 29.68447 | -93.92183 | 25077 ft | 484 kts | 91° |
| 2026-05-01 13:25 | 29.68466 | -93.84419 | 25935 ft | 487 kts | 91° |
| 2026-05-01 13:25 | 29.68454 | -93.80516 | 26339 ft | 490 kts | 91° |
| 2026-05-01 13:25 | 29.68428 | -93.76589 | 26710 ft | 492 kts | 92° |
| 2026-05-01 13:25 | 29.68392 | -93.72645 | 27094 ft | 494 kts | 92° |
| 2026-05-01 13:26 | 29.68350 | -93.68686 | 27493 ft | 496 kts | 92° |
| 2026-05-01 13:26 | 29.68305 | -93.64723 | 27884 ft | 497 kts | 92° |
| 2026-05-01 13:26 | 29.68260 | -93.60787 | 28238 ft | 499 kts | 92° |
| 2026-05-01 13:26 | 29.68212 | -93.56787 | 28585 ft | 501 kts | 92° |
| 2026-05-01 13:27 | 29.68163 | -93.52720 | 28931 ft | 503 kts | 92° |
| 2026-05-01 13:27 | 29.68115 | -93.48691 | 29288 ft | 504 kts | 92° |
| 2026-05-01 13:27 | 29.68013 | -93.40592 | 29924 ft | 509 kts | 92° |
| 2026-05-01 13:28 | 29.67908 | -93.32485 | 30559 ft | 512 kts | 92° |
| 2026-05-01 13:28 | 29.67852 | -93.28377 | 30854 ft | 515 kts | 92° |
| 2026-05-01 13:29 | 29.67739 | -93.20100 | 31390 ft | 520 kts | 92° |
| 2026-05-01 13:29 | 29.67616 | -93.11761 | 32006 ft | 522 kts | 92° |
| 2026-05-01 13:30 | 29.67358 | -92.95130 | 33353 ft | 520 kts | 92° |
| 2026-05-01 13:31 | 29.67220 | -92.86806 | 33973 ft | 520 kts | 92° |
| 2026-05-01 13:31 | 29.67006 | -92.74367 | 34923 ft | 518 kts | 92° |
| 2026-05-01 13:32 | 29.66856 | -92.66089 | 35431 ft | 518 kts | 92° |
| 2026-05-01 13:33 | 29.66625 | -92.53736 | 36202 ft | 516 kts | 92° |
| 2026-05-01 13:33 | 29.66463 | -92.45487 | 36690 ft | 515 kts | 92° |
| 2026-05-01 13:34 | 29.66220 | -92.37287 | 36948 ft | 513 kts | 98° |
| 2026-05-01 13:34 | 29.64799 | -92.29366 | 36969 ft | 503 kts | 108° |
| 2026-05-01 13:35 | 29.62269 | -92.17740 | 36973 ft | 497 kts | 108° |
| 2026-05-01 13:36 | 29.59833 | -92.06183 | 36973 ft | 495 kts | 107° |
| 2026-05-01 13:36 | 29.57438 | -91.94677 | 36981 ft | 497 kts | 107° |
| 2026-05-01 13:37 | 29.55823 | -91.86948 | 36978 ft | 499 kts | 107° |
| 2026-05-01 13:37 | 29.54189 | -91.79178 | 36971 ft | 502 kts | 107° |
| 2026-05-01 13:38 | 29.51716 | -91.67444 | 36967 ft | 505 kts | 107° |
| 2026-05-01 13:39 | 29.50052 | -91.59581 | 36965 ft | 507 kts | 107° |
| 2026-05-01 13:39 | 29.48380 | -91.51718 | 36960 ft | 507 kts | 107° |
| 2026-05-01 13:40 | 29.46707 | -91.43858 | 36957 ft | 506 kts | 107° |
| 2026-05-01 13:40 | 29.45047 | -91.36080 | 36961 ft | 504 kts | 107° |
| 2026-05-01 13:41 | 29.43375 | -91.28270 | 36961 ft | 503 kts | 107° |
| 2026-05-01 13:41 | 29.41704 | -91.20492 | 36956 ft | 501 kts | 107° |
| 2026-05-01 13:42 | 29.40036 | -91.12755 | 36960 ft | 499 kts | 107° |
| 2026-05-01 13:42 | 29.38367 | -91.05033 | 36963 ft | 498 kts | 107° |
| 2026-05-01 13:43 | 29.36696 | -90.97324 | 36964 ft | 498 kts | 107° |
| 2026-05-01 13:43 | 29.35017 | -90.89616 | 36962 ft | 498 kts | 107° |
| 2026-05-01 13:44 | 29.33333 | -90.81908 | 36968 ft | 498 kts | 107° |
| 2026-05-01 13:44 | 29.31645 | -90.74191 | 36965 ft | 499 kts | 107° |
| 2026-05-01 13:45 | 29.29953 | -90.66468 | 36962 ft | 500 kts | 107° |
| 2026-05-01 13:45 | 29.28266 | -90.58799 | 36961 ft | 500 kts | 107° |
| 2026-05-01 13:46 | 29.26556 | -90.51072 | 36969 ft | 501 kts | 107° |
| 2026-05-01 13:46 | 29.24845 | -90.43339 | 36977 ft | 501 kts | 107° |
| 2026-05-01 13:47 | 29.23128 | -90.35597 | 36973 ft | 502 kts | 107° |
| 2026-05-01 13:47 | 29.21402 | -90.27849 | 36971 ft | 502 kts | 107° |
| 2026-05-01 13:48 | 29.19673 | -90.20101 | 36972 ft | 502 kts | 107° |
| 2026-05-01 13:48 | 29.17939 | -90.12358 | 36971 ft | 502 kts | 107° |
| 2026-05-01 13:49 | 29.15651 | -90.04869 | 36982 ft | 497 kts | 117° |
| 2026-05-01 13:49 | 29.12861 | -89.97640 | 36973 ft | 496 kts | 118° |
| 2026-05-01 13:50 | 29.10061 | -89.90433 | 36971 ft | 496 kts | 117° |
| 2026-05-01 13:50 | 29.07308 | -89.83186 | 36973 ft | 496 kts | 117° |
| 2026-05-01 13:51 | 29.04601 | -89.75983 | 36970 ft | 496 kts | 117° |
| 2026-05-01 13:51 | 29.01878 | -89.68731 | 36973 ft | 496 kts | 117° |
| 2026-05-01 13:52 | 28.99152 | -89.61489 | 36970 ft | 496 kts | 117° |
| 2026-05-01 13:52 | 28.96415 | -89.54252 | 36967 ft | 497 kts | 117° |
| 2026-05-01 13:53 | 28.93671 | -89.47006 | 36963 ft | 496 kts | 117° |
| 2026-05-01 13:53 | 28.89551 | -89.36149 | 36961 ft | 496 kts | 117° |
| 2026-05-01 13:54 | 28.86818 | -89.28966 | 36966 ft | 497 kts | 117° |
| 2026-05-01 13:54 | 28.84063 | -89.21745 | 36969 ft | 497 kts | 117° |
| 2026-05-01 13:55 | 28.81303 | -89.14516 | 36976 ft | 497 kts | 117° |
| 2026-05-01 13:55 | 28.78545 | -89.07299 | 36973 ft | 496 kts | 117° |
| 2026-05-01 13:56 | 28.75779 | -89.00087 | 36967 ft | 497 kts | 117° |
| 2026-05-01 13:56 | 28.73003 | -88.92869 | 36973 ft | 496 kts | 117° |
| 2026-05-01 13:57 | 28.70697 | -88.86876 | 36970 ft | 497 kts | 117° |
| 2026-05-01 13:57 | 28.67466 | -88.78494 | 36972 ft | 497 kts | 117° |
| 2026-05-01 13:58 | 28.64688 | -88.71296 | 36977 ft | 496 kts | 117° |
| 2026-05-01 13:58 | 28.61901 | -88.64098 | 36982 ft | 496 kts | 117° |
| 2026-05-01 13:59 | 28.59111 | -88.56909 | 36980 ft | 497 kts | 117° |
| 2026-05-01 13:59 | 28.56319 | -88.49720 | 36982 ft | 497 kts | 117° |
| 2026-05-01 14:00 | 28.53524 | -88.42538 | 36981 ft | 496 kts | 117° |
| 2026-05-01 14:00 | 28.50724 | -88.35365 | 36982 ft | 496 kts | 117° |
| 2026-05-01 14:01 | 28.48400 | -88.29409 | 36982 ft | 496 kts | 117° |
| 2026-05-01 14:01 | 28.45139 | -88.21078 | 36981 ft | 496 kts | 117° |
| 2026-05-01 14:02 | 28.42328 | -88.13908 | 36986 ft | 496 kts | 117° |
| 2026-05-01 14:02 | 28.39990 | -88.07952 | 36989 ft | 496 kts | 117° |
| 2026-05-01 14:03 | 28.37290 | -88.00743 | 36988 ft | 497 kts | 112° |
| 2026-05-01 14:03 | 28.35126 | -87.93279 | 36997 ft | 498 kts | 109° |
| 2026-05-01 14:04 | 28.33071 | -87.85771 | 36989 ft | 497 kts | 110° |
| 2026-05-01 14:04 | 28.30969 | -87.78308 | 36990 ft | 496 kts | 110° |
| 2026-05-01 14:05 | 28.28819 | -87.70861 | 36993 ft | 496 kts | 110° |
| 2026-05-01 14:05 | 28.26656 | -87.63430 | 36982 ft | 496 kts | 110° |
| 2026-05-01 14:06 | 28.24493 | -87.56009 | 36983 ft | 495 kts | 111° |
| 2026-05-01 14:06 | 28.22331 | -87.48594 | 36979 ft | 495 kts | 110° |
| 2026-05-01 14:07 | 28.20181 | -87.41239 | 36982 ft | 495 kts | 110° |
| 2026-05-01 14:08 | 28.16925 | -87.30125 | 36983 ft | 495 kts | 110° |
| 2026-05-01 14:08 | 28.14751 | -87.22728 | 36994 ft | 495 kts | 111° |
| 2026-05-01 14:09 | 28.12572 | -87.15329 | 36990 ft | 495 kts | 111° |
| 2026-05-01 14:09 | 28.10387 | -87.07921 | 36986 ft | 495 kts | 111° |
| 2026-05-01 14:10 | 28.08194 | -87.00511 | 36983 ft | 496 kts | 111° |
| 2026-05-01 14:10 | 28.06002 | -86.93118 | 36983 ft | 495 kts | 111° |
| 2026-05-01 14:11 | 28.03822 | -86.85780 | 36978 ft | 494 kts | 111° |
| 2026-05-01 14:11 | 28.00537 | -86.74733 | 36980 ft | 493 kts | 110° |
| 2026-05-01 14:12 | 27.98402 | -86.67375 | 36992 ft | 491 kts | 110° |
| 2026-05-01 14:12 | 27.96287 | -86.60041 | 36981 ft | 489 kts | 109° |
| 2026-05-01 14:13 | 27.94182 | -86.52759 | 36977 ft | 486 kts | 110° |
| 2026-05-01 14:13 | 27.92076 | -86.45511 | 36975 ft | 483 kts | 110° |
| 2026-05-01 14:14 | 27.89977 | -86.38303 | 36982 ft | 481 kts | 110° |
| 2026-05-01 14:14 | 27.87883 | -86.31128 | 36986 ft | 480 kts | 110° |
| 2026-05-01 14:15 | 27.85798 | -86.24010 | 36977 ft | 480 kts | 110° |
| 2026-05-01 14:15 | 27.83697 | -86.16849 | 36984 ft | 480 kts | 110° |
| 2026-05-01 14:16 | 27.81592 | -86.09684 | 36984 ft | 481 kts | 110° |
| 2026-05-01 14:16 | 27.79478 | -86.02500 | 36987 ft | 482 kts | 110° |
| 2026-05-01 14:17 | 27.77352 | -85.95299 | 36995 ft | 484 kts | 110° |
| 2026-05-01 14:17 | 27.75220 | -85.88079 | 36994 ft | 485 kts | 110° |
| 2026-05-01 14:18 | 27.73075 | -85.80848 | 36993 ft | 486 kts | 110° |
| 2026-05-01 14:18 | 27.71271 | -85.74778 | 36991 ft | 487 kts | 110° |
| 2026-05-01 14:19 | 27.68765 | -85.66360 | 36994 ft | 487 kts | 110° |
| 2026-05-01 14:19 | 27.66602 | -85.59109 | 36988 ft | 487 kts | 110° |
| 2026-05-01 14:20 | 27.63357 | -85.48256 | 36991 ft | 486 kts | 110° |
| 2026-05-01 14:21 | 27.61196 | -85.41044 | 36987 ft | 485 kts | 110° |
| 2026-05-01 14:21 | 27.59075 | -85.33879 | 36989 ft | 484 kts | 106° |
| 2026-05-01 14:22 | 27.57158 | -85.22722 | 36985 ft | 483 kts | 100° |
| 2026-05-01 14:22 | 27.55902 | -85.15289 | 36988 ft | 482 kts | 101° |
| 2026-05-01 14:23 | 27.54603 | -85.07889 | 36990 ft | 481 kts | 101° |
| 2026-05-01 14:23 | 27.53302 | -85.00482 | 36995 ft | 481 kts | 101° |
| 2026-05-01 14:24 | 27.52004 | -84.93078 | 36996 ft | 482 kts | 101° |
| 2026-05-01 14:24 | 27.50700 | -84.85667 | 37004 ft | 482 kts | 101° |
| 2026-05-01 14:25 | 27.49397 | -84.78287 | 37003 ft | 484 kts | 101° |
| 2026-05-01 14:25 | 27.48068 | -84.70851 | 37001 ft | 484 kts | 101° |
| 2026-05-01 14:26 | 27.46032 | -84.59682 | 36999 ft | 486 kts | 104° |
| 2026-05-01 14:27 | 27.43857 | -84.52491 | 37003 ft | 486 kts | 111° |
| 2026-05-01 14:27 | 27.41396 | -84.45390 | 37005 ft | 487 kts | 111° |
| 2026-05-01 14:28 | 27.37759 | -84.34699 | 37000 ft | 488 kts | 111° |
| 2026-05-01 14:28 | 27.35385 | -84.27548 | 36997 ft | 488 kts | 110° |
| 2026-05-01 14:29 | 27.33017 | -84.20394 | 37000 ft | 488 kts | 110° |
| 2026-05-01 14:30 | 27.28287 | -84.06168 | 37000 ft | 487 kts | 110° |
| 2026-05-01 14:31 | 27.24722 | -83.95491 | 36997 ft | 486 kts | 110° |
| 2026-05-01 14:31 | 27.22345 | -83.88393 | 37006 ft | 484 kts | 110° |
| 2026-05-01 14:32 | 27.19971 | -83.81316 | 37011 ft | 483 kts | 110° |
| 2026-05-01 14:32 | 27.17600 | -83.74255 | 37008 ft | 483 kts | 110° |
| 2026-05-01 14:33 | 27.15229 | -83.67213 | 37009 ft | 482 kts | 110° |
| 2026-05-01 14:33 | 27.12852 | -83.60171 | 37012 ft | 481 kts | 110° |
| 2026-05-01 14:34 | 27.10479 | -83.53152 | 37009 ft | 481 kts | 110° |
| 2026-05-01 14:34 | 27.08107 | -83.46144 | 37012 ft | 480 kts | 110° |
| 2026-05-01 14:35 | 27.05730 | -83.39140 | 37008 ft | 480 kts | 110° |
| 2026-05-01 14:35 | 27.03352 | -83.32139 | 37013 ft | 480 kts | 111° |
| 2026-05-01 14:36 | 27.00966 | -83.25133 | 37015 ft | 480 kts | 110° |
| 2026-05-01 14:36 | 26.98578 | -83.18140 | 37009 ft | 480 kts | 110° |
| 2026-05-01 14:37 | 26.96202 | -83.11183 | 37020 ft | 480 kts | 110° |
| 2026-05-01 14:37 | 26.93809 | -83.04193 | 37007 ft | 480 kts | 110° |
| 2026-05-01 14:38 | 26.91411 | -82.97199 | 37015 ft | 480 kts | 110° |
| 2026-05-01 14:38 | 26.89007 | -82.90207 | 37010 ft | 480 kts | 110° |
| 2026-05-01 14:39 | 26.86602 | -82.83226 | 37010 ft | 480 kts | 110° |
| 2026-05-01 14:39 | 26.84197 | -82.76253 | 37006 ft | 480 kts | 110° |
| 2026-05-01 14:40 | 26.81789 | -82.69285 | 37009 ft | 479 kts | 110° |
| 2026-05-01 14:40 | 26.79379 | -82.62328 | 37011 ft | 479 kts | 110° |
| 2026-05-01 14:41 | 26.76968 | -82.55379 | 37006 ft | 479 kts | 110° |
| 2026-05-01 14:41 | 26.74554 | -82.48436 | 37008 ft | 478 kts | 110° |
| 2026-05-01 14:42 | 26.72138 | -82.41498 | 37008 ft | 478 kts | 110° |
| 2026-05-01 14:42 | 26.69739 | -82.34615 | 37017 ft | 477 kts | 110° |
| 2026-05-01 14:43 | 26.67320 | -82.27693 | 37021 ft | 477 kts | 110° |
| 2026-05-01 14:43 | 26.64902 | -82.20789 | 37019 ft | 477 kts | 110° |
| 2026-05-01 14:44 | 26.62482 | -82.13887 | 37017 ft | 477 kts | 110° |
| 2026-05-01 14:44 | 26.58846 | -82.03538 | 37012 ft | 477 kts | 110° |
| 2026-05-01 14:45 | 26.55200 | -81.93190 | 37019 ft | 477 kts | 111° |
| 2026-05-01 14:46 | 26.52778 | -81.86336 | 37007 ft | 477 kts | 111° |
| 2026-05-01 14:46 | 26.49118 | -81.76007 | 37013 ft | 476 kts | 111° |
| 2026-05-01 14:47 | 26.46680 | -81.69133 | 37016 ft | 475 kts | 111° |
| 2026-05-01 14:48 | 26.43030 | -81.58864 | 37018 ft | 474 kts | 111° |
| 2026-05-01 14:48 | 26.39381 | -81.48625 | 37016 ft | 473 kts | 111° |
| 2026-05-01 14:49 | 26.34920 | -81.36150 | 37009 ft | 473 kts | 111° |
| 2026-05-01 14:50 | 26.30030 | -81.22519 | 37021 ft | 473 kts | 111° |
| 2026-05-01 14:51 | 26.26352 | -81.12302 | 37021 ft | 474 kts | 111° |
| 2026-05-01 14:52 | 26.22678 | -81.02118 | 37022 ft | 475 kts | 112° |
| 2026-05-01 14:53 | 26.18975 | -80.91880 | 37018 ft | 475 kts | 112° |
| 2026-05-01 14:53 | 26.16504 | -80.85055 | 37010 ft | 475 kts | 112° |
| 2026-05-01 14:54 | 26.14027 | -80.78240 | 37010 ft | 475 kts | 112° |
| 2026-05-01 14:54 | 26.11544 | -80.71417 | 37006 ft | 474 kts | 112° |
| 2026-05-01 14:55 | 26.09065 | -80.64614 | 37006 ft | 474 kts | 112° |
| 2026-05-01 14:55 | 26.06586 | -80.57823 | 37011 ft | 473 kts | 112° |
| 2026-05-01 14:56 | 26.04107 | -80.51046 | 37008 ft | 473 kts | 113° |
| 2026-05-01 14:56 | 26.01630 | -80.44281 | 37010 ft | 472 kts | 113° |
| 2026-05-01 14:57 | 25.99168 | -80.37566 | 37009 ft | 471 kts | 113° |
| 2026-05-01 14:57 | 25.95452 | -80.27458 | 37007 ft | 471 kts | 113° |
| 2026-05-01 14:58 | 25.92975 | -80.20734 | 37003 ft | 469 kts | 113° |
| 2026-05-01 14:58 | 25.90498 | -80.14023 | 37012 ft | 469 kts | 113° |
| 2026-05-01 14:59 | 25.89011 | -80.09998 | 37009 ft | 469 kts | 113° |
| 2026-05-01 14:59 | 25.88067 | -80.07446 | 37010 ft | 469 kts | 114° |
| 2026-05-01 15:00 | 25.84353 | -79.97421 | 37011 ft | 470 kts | 114° |
| 2026-05-01 15:01 | 25.81864 | -79.90715 | 36828 ft | 472 kts | 114° |
| 2026-05-01 15:01 | 25.80613 | -79.87347 | 36427 ft | 470 kts | 113° |
| 2026-05-01 15:01 | 25.79371 | -79.84006 | 35969 ft | 466 kts | 114° |
| 2026-05-01 15:01 | 25.78138 | -79.80692 | 35489 ft | 463 kts | 114° |
| 2026-05-01 15:02 | 25.76914 | -79.77406 | 35033 ft | 459 kts | 114° |
| 2026-05-01 15:02 | 25.76108 | -79.75245 | 34718 ft | 457 kts | 114° |
| 2026-05-01 15:02 | 25.74488 | -79.70902 | 34090 ft | 453 kts | 114° |
| 2026-05-01 15:02 | 25.73288 | -79.67690 | 33633 ft | 449 kts | 113° |
| 2026-05-01 15:03 | 25.72097 | -79.64502 | 33183 ft | 446 kts | 113° |
| 2026-05-01 15:03 | 25.70911 | -79.61337 | 32711 ft | 442 kts | 113° |
| 2026-05-01 15:03 | 25.69735 | -79.58193 | 32254 ft | 439 kts | 113° |
| 2026-05-01 15:03 | 25.68566 | -79.55072 | 31800 ft | 437 kts | 114° |
| 2026-05-01 15:04 | 25.67421 | -79.52015 | 31351 ft | 434 kts | 114° |
| 2026-05-01 15:04 | 25.66266 | -79.48936 | 30903 ft | 431 kts | 114° |
| 2026-05-01 15:04 | 25.65118 | -79.45878 | 30461 ft | 428 kts | 114° |
| 2026-05-01 15:04 | 25.63977 | -79.42839 | 30026 ft | 425 kts | 114° |
| 2026-05-01 15:05 | 25.62840 | -79.39818 | 29555 ft | 423 kts | 114° |
| 2026-05-01 15:05 | 25.61713 | -79.36824 | 29088 ft | 421 kts | 114° |
| 2026-05-01 15:05 | 25.60591 | -79.33843 | 28637 ft | 418 kts | 114° |
| 2026-05-01 15:05 | 25.59473 | -79.30875 | 28187 ft | 416 kts | 114° |
| 2026-05-01 15:06 | 25.58362 | -79.27929 | 27748 ft | 413 kts | 114° |
| 2026-05-01 15:06 | 25.57260 | -79.25005 | 27307 ft | 410 kts | 114° |
| 2026-05-01 15:06 | 25.56164 | -79.22100 | 26877 ft | 408 kts | 114° |
| 2026-05-01 15:06 | 25.55069 | -79.19207 | 26438 ft | 406 kts | 114° |
| 2026-05-01 15:07 | 25.53984 | -79.16335 | 26007 ft | 403 kts | 114° |
| 2026-05-01 15:07 | 25.52902 | -79.13477 | 25581 ft | 401 kts | 114° |
| 2026-05-01 15:07 | 25.51826 | -79.10636 | 25154 ft | 399 kts | 114° |
| 2026-05-01 15:07 | 25.50752 | -79.07806 | 24729 ft | 397 kts | 114° |
| 2026-05-01 15:08 | 25.49688 | -79.05001 | 24304 ft | 394 kts | 114° |
| 2026-05-01 15:08 | 25.48640 | -79.02243 | 23893 ft | 392 kts | 114° |
| 2026-05-01 15:08 | 25.47586 | -78.99466 | 23477 ft | 390 kts | 114° |
| 2026-05-01 15:08 | 25.46540 | -78.96711 | 23066 ft | 388 kts | 114° |
| 2026-05-01 15:09 | 25.45497 | -78.93960 | 22650 ft | 386 kts | 114° |
| 2026-05-01 15:09 | 25.44447 | -78.91197 | 22230 ft | 384 kts | 114° |
| 2026-05-01 15:09 | 25.43426 | -78.88519 | 21828 ft | 382 kts | 114° |
| 2026-05-01 15:09 | 25.42397 | -78.85819 | 21418 ft | 379 kts | 114° |
| 2026-05-01 15:10 | 25.41375 | -78.83141 | 21021 ft | 377 kts | 113° |
| 2026-05-01 15:10 | 25.39347 | -78.77825 | 20211 ft | 373 kts | 113° |
| 2026-05-01 15:10 | 25.38342 | -78.75195 | 19809 ft | 371 kts | 113° |
| 2026-05-01 15:11 | 25.37340 | -78.72580 | 19412 ft | 368 kts | 113° |
| 2026-05-01 15:11 | 25.35356 | -78.67391 | 18616 ft | 364 kts | 113° |
| 2026-05-01 15:11 | 25.34373 | -78.64820 | 18226 ft | 362 kts | 113° |
| 2026-05-01 15:12 | 25.33396 | -78.62268 | 17834 ft | 359 kts | 113° |
| 2026-05-01 15:12 | 25.31457 | -78.57208 | 17040 ft | 355 kts | 113° |
| 2026-05-01 15:12 | 25.30497 | -78.54701 | 16654 ft | 353 kts | 113° |
| 2026-05-01 15:13 | 25.27663 | -78.47300 | 15509 ft | 347 kts | 109° |
| 2026-05-01 15:14 | 25.27303 | -78.42130 | 14913 ft | 334 kts | 81° |
| 2026-05-01 15:14 | 25.27609 | -78.39604 | 14648 ft | 328 kts | 80° |
| 2026-05-01 15:14 | 25.28236 | -78.34638 | 13967 ft | 324 kts | 81° |
| 2026-05-01 15:15 | 25.28824 | -78.29717 | 13259 ft | 322 kts | 81° |
| 2026-05-01 15:15 | 25.29390 | -78.24817 | 12529 ft | 320 kts | 81° |
| 2026-05-01 15:16 | 25.29852 | -78.20773 | 11926 ft | 318 kts | 81° |
| 2026-05-01 15:16 | 25.30437 | -78.15112 | 11101 ft | 315 kts | 83° |
| 2026-05-01 15:17 | 25.30857 | -78.10321 | 10398 ft | 312 kts | 84° |
| 2026-05-01 15:18 | 25.31476 | -78.03315 | 9543 ft | 300 kts | 84° |
| 2026-05-01 15:18 | 25.31679 | -78.01024 | 9214 ft | 299 kts | 84° |
| 2026-05-01 15:19 | 25.32286 | -77.94229 | 8217 ft | 293 kts | 84° |
| 2026-05-01 15:19 | 25.32680 | -77.89771 | 7561 ft | 290 kts | 84° |
| 2026-05-01 15:19 | 25.32867 | -77.87596 | 7229 ft | 284 kts | 87° |
| 2026-05-01 15:20 | 25.31681 | -77.83705 | 6700 ft | 267 kts | 123° |
| 2026-05-01 15:20 | 25.30653 | -77.82003 | 6410 ft | 266 kts | 125° |
| 2026-05-01 15:20 | 25.29603 | -77.80327 | 6102 ft | 265 kts | 125° |
| 2026-05-01 15:21 | 25.28560 | -77.78655 | 5793 ft | 264 kts | 125° |
| 2026-05-01 15:21 | 25.27524 | -77.76977 | 5485 ft | 264 kts | 125° |
| 2026-05-01 15:21 | 25.26503 | -77.75312 | 5339 ft | 258 kts | 125° |
| 2026-05-01 15:21 | 25.25502 | -77.73673 | 5085 ft | 259 kts | 124° |
| 2026-05-01 15:22 | 25.23501 | -77.70376 | 4465 ft | 258 kts | 125° |
| 2026-05-01 15:22 | 25.22508 | -77.68734 | 4178 ft | 255 kts | 124° |
| 2026-05-01 15:22 | 25.21764 | -77.66962 | 3748 ft | 260 kts | 102° |
| 2026-05-01 15:23 | 25.21915 | -77.64856 | 2378 ft | 299 kts | 84° |
| 2026-05-01 15:23 | 25.21951 | -77.62609 | 2226 ft | 286 kts | 98° |
| 2026-05-01 15:23 | 25.21468 | -77.60533 | 2095 ft | 275 kts | 116° |
| 2026-05-01 15:23 | 25.20364 | -77.58894 | 2014 ft | 260 kts | 144° |
| 2026-05-01 15:24 | 25.18777 | -77.58116 | 2002 ft | 244 kts | 171° |
| 2026-05-01 15:24 | 25.17139 | -77.57860 | 1994 ft | 232 kts | 174° |
| 2026-05-01 15:24 | 25.15582 | -77.57644 | 1985 ft | 219 kts | 174° |
| 2026-05-01 15:24 | 25.14143 | -77.57321 | 1985 ft | 204 kts | 155° |
| 2026-05-01 15:25 | 25.13134 | -77.56376 | 2033 ft | 185 kts | 136° |
| 2026-05-01 15:25 | 25.12219 | -77.55460 | 1979 ft | 173 kts | 140° |
| 2026-05-01 15:25 | 25.11381 | -77.54532 | 1778 ft | 167 kts | 136° |
| 2026-05-01 15:25 | 25.10611 | -77.53650 | 1601 ft | 151 kts | 137° |
| 2026-05-01 15:26 | 25.09892 | -77.52845 | 1375 ft | 146 kts | 137° |
| 2026-05-01 15:26 | 25.09181 | -77.52051 | 1172 ft | 144 kts | 137° |
| 2026-05-01 15:26 | 25.08482 | -77.51270 | 989 ft | 142 kts | 138° |
| 2026-05-01 15:26 | 25.07787 | -77.50493 | 804 ft | 143 kts | 137° |
| 2026-05-01 15:27 | 25.07090 | -77.49715 | 619 ft | 143 kts | 137° |
| 2026-05-01 15:27 | 25.06393 | -77.48937 | 420 ft | 142 kts | 137° |
| 2026-05-01 15:27 | 25.05695 | -77.48162 | 243 ft | 144 kts | 140° |
| 2026-05-01 15:28 | 25.04381 | -77.46684 | 19 ft | 100 kts | 135° |
| 2026-05-01 15:28 | 25.04138 | -77.46328 | 17 ft | 30 kts | 108° |
| 2026-05-01 15:28 | 25.04132 | -77.46178 | 16 ft | 10 kts | 14° |
| 2026-05-01 15:29 | 25.04276 | -77.46302 | 16 ft | 14 kts | 316° |
| 2026-05-01 15:29 | 25.04345 | -77.46378 | 16 ft | 14 kts | 314° |
| 2026-05-01 15:29 | 25.04469 | -77.46524 | 16 ft | 13 kts | 314° |
| 2026-05-01 15:30 | 25.04569 | -77.46637 | 19 ft | 12 kts | 315° |
| 2026-05-01 15:31 | 25.04815 | -77.46906 | 19 ft | 11 kts | 315° |
| 2026-05-01 15:31 | 25.04944 | -77.46893 | 17 ft | 10 kts | 51° |
| 2026-05-01 15:32 | 25.05014 | -77.46763 | 16 ft | 10 kts | 94° |
| 2026-05-01 15:32 | 25.05006 | -77.46726 | 17 ft | 1 kts | 110° |
| 2026-05-01 15:33 | 25.05005 | -77.46722 | 16 ft | 0 kts | 110° |